createdAt,value
2019-02-02T00:02:32.833Z,1.90
2019-02-02T00:05:02.892Z,1.90
2019-02-02T00:07:32.920Z,1.80
2019-02-02T00:10:09.167Z,1.80
2019-02-02T00:12:52.216Z,1.80
2019-02-02T00:15:22.280Z,1.70
2019-02-02T00:17:52.327Z,1.70
2019-02-02T00:20:22.296Z,1.70
2019-02-02T00:22:52.290Z,1.70
2019-02-02T00:25:22.944Z,1.70
2019-02-02T00:27:54.903Z,1.70
2019-02-02T00:30:25.163Z,1.60
2019-02-02T00:32:55.239Z,1.80
2019-02-02T00:35:25.305Z,1.80
2019-02-02T00:37:55.293Z,1.80
2019-02-02T00:40:25.394Z,1.80
2019-02-02T00:42:55.348Z,1.80
2019-02-02T00:45:25.345Z,1.80
2019-02-02T00:47:55.438Z,1.80
2019-02-02T00:50:25.283Z,1.80
2019-02-02T00:52:55.365Z,1.90
2019-02-02T00:55:25.306Z,2.00
2019-02-02T00:57:55.252Z,1.90
2019-02-02T01:00:28.993Z,1.80
2019-02-02T01:02:59.040Z,1.80
2019-02-02T01:05:29.106Z,1.70
2019-02-02T01:07:59.145Z,1.80
2019-02-02T01:10:32.431Z,1.90
2019-02-02T01:13:07.954Z,1.90
2019-02-02T01:15:38.073Z,1.80
2019-02-02T01:18:07.892Z,1.80
2019-02-02T01:20:37.973Z,1.80
2019-02-02T01:23:08.691Z,1.90
2019-02-02T01:25:38.920Z,1.90
2019-02-02T01:28:08.828Z,1.90
2019-02-02T01:30:38.971Z,2.00
2019-02-02T01:33:08.935Z,2.00
2019-02-02T01:35:38.809Z,2.00
2019-02-02T01:38:08.742Z,2.00
2019-02-02T01:40:39.828Z,2.00
2019-02-02T01:43:09.961Z,2.10
2019-02-02T01:45:39.897Z,2.00
2019-02-02T01:48:09.897Z,2.00
2019-02-02T01:50:39.827Z,2.00
2019-02-02T01:53:09.670Z,2.00
2019-02-02T01:55:39.626Z,2.00
2019-02-02T01:58:16.319Z,2.10
2019-02-02T02:00:41.406Z,2.00
2019-02-02T02:03:11.348Z,2.00
2019-02-02T02:05:41.341Z,1.90
2019-02-02T02:08:13.414Z,1.90
2019-02-02T02:10:43.432Z,1.90
2019-02-02T02:13:13.946Z,1.90
2019-02-02T02:15:45.135Z,1.90
2019-02-02T02:18:15.857Z,1.90
2019-02-02T02:20:45.642Z,1.90
2019-02-02T02:23:15.704Z,1.90
2019-02-02T02:25:46.048Z,1.80
2019-02-02T02:28:27.245Z,1.80
2019-02-02T02:30:47.686Z,1.70
2019-02-02T02:33:17.883Z,1.60
2019-02-02T02:35:48.045Z,1.60
2019-02-02T02:38:17.989Z,1.60
2019-02-02T02:40:47.864Z,1.60
2019-02-02T02:43:17.917Z,1.60
2019-02-02T02:45:48.154Z,1.60
2019-02-02T02:48:19.696Z,1.70
2019-02-02T02:50:50.021Z,1.60
2019-02-02T02:53:20.394Z,1.60
2019-02-02T02:55:50.351Z,1.60
2019-02-02T02:58:20.623Z,1.70
2019-02-02T03:00:50.664Z,1.70
2019-02-02T03:03:21.059Z,1.70
2019-02-02T03:05:50.998Z,1.70
2019-02-02T03:08:20.953Z,1.70
2019-02-02T03:10:50.980Z,1.70
2019-02-02T03:13:20.968Z,1.70
2019-02-02T03:15:51.131Z,1.70
2019-02-02T03:18:21.131Z,1.70
2019-02-02T03:20:51.182Z,1.80
2019-02-02T03:23:21.132Z,1.90
2019-02-02T03:25:51.075Z,1.90
2019-02-02T03:28:28.817Z,1.90
2019-02-02T03:30:58.846Z,1.90
2019-02-02T03:33:29.085Z,1.90
2019-02-02T03:35:59.491Z,1.90
2019-02-02T03:38:29.590Z,1.90
2019-02-02T03:40:59.559Z,2.00
2019-02-02T03:43:29.721Z,2.00
2019-02-02T03:45:59.824Z,2.00
2019-02-02T03:48:30.029Z,2.00
2019-02-02T03:50:59.962Z,2.10
2019-02-02T03:53:30.286Z,2.20
2019-02-02T03:56:01.358Z,2.10
2019-02-02T03:58:31.301Z,2.10
2019-02-02T04:01:01.533Z,2.10
2019-02-02T04:03:31.706Z,2.20
2019-02-02T04:06:01.577Z,2.20
2019-02-02T04:08:31.639Z,2.10
2019-02-02T04:11:01.573Z,2.10
2019-02-02T04:13:31.594Z,2.10
2019-02-02T04:16:01.773Z,2.00
2019-02-02T04:18:31.575Z,2.00
2019-02-02T04:21:01.386Z,2.00
2019-02-02T04:23:31.216Z,2.00
2019-02-02T04:26:01.084Z,2.00
2019-02-02T04:28:31.008Z,2.00
2019-02-02T04:31:01.067Z,2.00
2019-02-02T04:33:31.061Z,2.10
2019-02-02T04:36:01.151Z,2.10
2019-02-02T04:38:31.089Z,2.10
2019-02-02T04:41:01.149Z,2.10
2019-02-02T04:43:31.088Z,2.20
2019-02-02T04:46:01.029Z,2.10
2019-02-02T04:48:32.559Z,2.20
2019-02-02T04:51:02.802Z,2.30
2019-02-02T04:53:32.965Z,2.30
2019-02-02T04:56:02.999Z,2.20
2019-02-02T04:58:32.963Z,2.20
2019-02-02T05:01:04.779Z,2.20
2019-02-02T05:03:36.193Z,2.20
2019-02-02T05:06:06.243Z,2.20
2019-02-02T05:08:36.109Z,2.20
2019-02-02T05:11:06.198Z,2.20
2019-02-02T05:13:36.090Z,2.30
2019-02-02T05:16:06.089Z,2.30
2019-02-02T05:18:36.193Z,2.30
2019-02-02T05:21:06.416Z,2.30
2019-02-02T05:23:36.328Z,2.30
2019-02-02T05:26:06.258Z,2.30
2019-02-02T05:28:37.999Z,2.30
2019-02-02T05:31:08.833Z,2.30
2019-02-02T05:33:39.862Z,2.20
2019-02-02T05:36:10.120Z,2.20
2019-02-02T05:38:40.213Z,2.20
2019-02-02T05:41:10.194Z,2.20
2019-02-02T05:43:42.923Z,2.20
2019-02-02T05:46:23.498Z,2.20
2019-02-02T05:48:53.381Z,2.20
2019-02-02T05:51:23.229Z,2.20
2019-02-02T05:53:53.028Z,2.20
2019-02-02T05:56:22.964Z,2.20
2019-02-02T05:58:52.772Z,2.30
2019-02-02T06:01:22.646Z,2.40
2019-02-02T06:03:52.587Z,2.30
2019-02-02T06:06:22.574Z,2.40
2019-02-02T06:08:52.428Z,2.40
2019-02-02T06:11:22.451Z,2.30
2019-02-02T06:13:52.516Z,2.30
2019-02-02T06:16:22.496Z,2.30
2019-02-02T06:18:52.462Z,2.30
2019-02-02T06:21:22.642Z,2.30
2019-02-02T06:23:52.452Z,2.40
2019-02-02T06:26:22.659Z,2.40
2019-02-02T06:28:52.741Z,2.40
2019-02-02T06:31:22.774Z,2.30
2019-02-02T06:33:53.089Z,2.30
2019-02-02T06:36:23.033Z,2.30
2019-02-02T06:38:52.896Z,2.30
2019-02-02T06:41:22.850Z,2.30
2019-02-02T06:43:52.668Z,2.30
2019-02-02T06:46:24.460Z,2.90
2019-02-02T06:48:56.065Z,2.30
2019-02-02T06:51:26.140Z,2.30
2019-02-02T06:53:56.111Z,2.40
2019-02-02T06:56:26.189Z,2.30
2019-02-02T06:58:56.188Z,2.30
2019-02-02T07:01:26.173Z,2.30
2019-02-02T07:03:55.931Z,2.30
2019-02-02T07:06:29.643Z,2.30
2019-02-02T07:09:03.732Z,2.30
2019-02-02T07:11:34.623Z,2.30
2019-02-02T07:14:04.706Z,2.20
2019-02-02T07:16:35.079Z,2.20
2019-02-02T07:19:05.159Z,2.20
2019-02-02T07:21:54.620Z,2.20
2019-02-02T07:24:27.788Z,2.20
2019-02-02T07:26:58.101Z,2.20
2019-02-02T07:29:29.294Z,2.20
2019-02-02T07:31:59.877Z,2.20
2019-02-02T07:34:30.151Z,2.30
2019-02-02T07:37:00.196Z,2.30
2019-02-02T07:39:30.277Z,2.30
2019-02-02T07:42:00.225Z,2.30
2019-02-02T07:44:30.216Z,2.50
2019-02-02T07:47:01.485Z,2.40
2019-02-02T07:49:31.523Z,2.40
2019-02-02T07:52:01.645Z,2.40
2019-02-02T07:54:33.118Z,2.50
2019-02-02T07:57:05.670Z,2.50
2019-02-02T07:59:35.815Z,2.50
2019-02-02T08:02:06.911Z,2.50
2019-02-02T08:04:37.165Z,2.60
2019-02-02T08:07:07.116Z,2.60
2019-02-02T08:09:37.166Z,2.60
2019-02-02T08:12:07.333Z,2.60
2019-02-02T08:14:37.684Z,2.70
2019-02-02T08:17:08.056Z,2.70
2019-02-02T08:19:38.397Z,2.60
2019-02-02T08:22:09.288Z,2.60
2019-02-02T08:24:40.873Z,2.60
2019-02-02T08:27:11.180Z,2.70
2019-02-02T08:29:42.945Z,2.70
2019-02-02T08:32:12.969Z,2.80
2019-02-02T08:34:42.985Z,2.80
2019-02-02T08:37:13.998Z,2.90
2019-02-02T08:39:44.444Z,2.80
2019-02-02T08:42:14.871Z,2.90
2019-02-02T08:44:44.681Z,2.80
2019-02-02T08:47:14.871Z,2.80
2019-02-02T08:49:45.123Z,2.90
2019-02-02T08:52:15.540Z,2.80
2019-02-02T08:54:45.944Z,2.80
2019-02-02T08:57:15.874Z,2.80
2019-02-02T08:59:45.958Z,2.90
2019-02-02T09:02:15.941Z,2.90
2019-02-02T09:04:46.163Z,2.80
2019-02-02T09:07:16.012Z,2.80
2019-02-02T09:09:48.605Z,2.80
2019-02-02T09:12:18.834Z,2.90
2019-02-02T09:14:48.847Z,2.90
2019-02-02T09:17:19.264Z,2.90
2019-02-02T09:19:49.358Z,3.00
2019-02-02T09:22:20.725Z,3.10
2019-02-02T09:24:51.932Z,3.00
2019-02-02T09:27:22.274Z,3.00
2019-02-02T09:29:52.436Z,3.00
2019-02-02T09:32:22.631Z,3.00
2019-02-02T09:34:54.353Z,3.00
2019-02-02T09:37:24.578Z,3.00
2019-02-02T09:39:54.795Z,3.00
2019-02-02T09:42:27.636Z,3.00
2019-02-02T09:44:59.262Z,2.90
2019-02-02T09:47:29.498Z,3.00
2019-02-02T09:49:59.480Z,3.00
2019-02-02T09:52:30.468Z,3.00
2019-02-02T09:55:05.499Z,3.00
2019-02-02T09:57:36.979Z,3.00
2019-02-02T10:00:11.843Z,3.20
2019-02-02T10:02:42.281Z,3.10
2019-02-02T10:05:12.511Z,3.10
2019-02-02T10:07:42.607Z,3.20
2019-02-02T10:10:16.965Z,3.30
2019-02-02T10:12:55.977Z,3.30
2019-02-02T10:15:27.780Z,3.30
2019-02-02T10:17:58.878Z,3.30
2019-02-02T10:20:44.302Z,3.30
2019-02-02T10:23:14.365Z,3.30
2019-02-02T10:25:44.952Z,3.40
2019-02-02T10:28:15.097Z,3.40
2019-02-02T10:30:45.524Z,3.30
2019-02-02T10:33:17.371Z,3.40
2019-02-02T10:35:47.469Z,3.40
2019-02-02T10:38:17.628Z,3.30
2019-02-02T10:40:49.527Z,3.30
2019-02-02T10:43:20.186Z,3.30
2019-02-02T10:45:50.274Z,3.20
2019-02-02T10:48:20.379Z,3.30
2019-02-02T10:50:50.603Z,3.20
2019-02-02T10:53:20.554Z,3.30
2019-02-02T10:55:50.984Z,3.30
2019-02-02T10:58:21.296Z,3.30
2019-02-02T11:00:51.516Z,3.30
2019-02-02T11:03:22.944Z,3.30
2019-02-02T11:05:55.128Z,3.40
2019-02-02T11:08:26.925Z,3.40
2019-02-02T11:10:58.803Z,3.50
2019-02-02T11:13:29.992Z,3.40
2019-02-02T11:16:00.271Z,3.40
2019-02-02T11:18:32.021Z,3.30
2019-02-02T11:21:02.207Z,3.30
2019-02-02T11:23:32.186Z,3.30
2019-02-02T11:26:02.485Z,3.30
2019-02-02T11:28:37.613Z,3.30
2019-02-02T11:31:12.728Z,3.30
2019-02-02T11:33:46.417Z,3.30
2019-02-02T11:36:16.843Z,3.30
2019-02-02T11:38:49.399Z,3.20
2019-02-02T11:41:19.646Z,3.30
2019-02-02T11:43:50.986Z,3.30
2019-02-02T11:46:25.314Z,3.20
2019-02-02T11:48:55.919Z,3.20
2019-02-02T11:51:26.074Z,3.20
2019-02-02T11:53:56.522Z,3.20
2019-02-02T11:56:26.668Z,3.20
2019-02-02T11:58:57.127Z,3.20
2019-02-02T12:01:27.391Z,3.30
2019-02-02T12:03:57.461Z,3.20
2019-02-02T12:06:27.713Z,3.30
2019-02-02T12:08:57.889Z,3.30
2019-02-02T12:11:28.306Z,3.30
2019-02-02T12:13:58.241Z,3.30
2019-02-02T12:16:33.117Z,3.30
2019-02-02T12:19:03.108Z,3.20
2019-02-02T12:21:35.367Z,3.20
2019-02-02T12:24:15.895Z,3.20
2019-02-02T12:26:44.115Z,3.20
2019-02-02T12:29:16.681Z,3.30
2019-02-02T12:31:49.678Z,3.30
2019-02-02T12:34:19.527Z,3.30
2019-02-02T12:36:49.612Z,3.40
2019-02-02T12:39:22.721Z,3.30
2019-02-02T12:41:53.714Z,3.20
2019-02-02T12:44:23.770Z,3.20
2019-02-02T12:46:53.683Z,3.10
2019-02-02T12:49:26.464Z,3.10
2019-02-02T12:51:56.412Z,3.00
2019-02-02T12:54:29.009Z,3.00
2019-02-02T12:56:59.056Z,2.90
2019-02-02T12:59:31.121Z,2.80
2019-02-02T13:02:01.141Z,2.80
2019-02-02T13:04:34.213Z,2.80
2019-02-02T13:07:04.194Z,2.80
2019-02-02T13:09:34.176Z,2.90
2019-02-02T13:12:04.095Z,2.90
2019-02-02T13:14:34.933Z,2.90
2019-02-02T13:17:06.159Z,2.90
2019-02-02T13:19:43.309Z,2.90
2019-02-02T13:22:13.341Z,2.90
2019-02-02T13:24:45.456Z,2.80
2019-02-02T13:27:17.942Z,2.70
2019-02-02T13:29:52.238Z,2.70
2019-02-02T13:32:22.225Z,2.80
2019-02-02T13:34:52.136Z,2.80
2019-02-02T13:37:22.716Z,2.80
2019-02-02T13:39:52.819Z,2.90
2019-02-02T13:42:23.018Z,2.90
2019-02-02T13:44:53.038Z,2.80
2019-02-02T13:47:23.301Z,2.70
2019-02-02T13:49:53.818Z,2.60
2019-02-02T13:52:24.081Z,2.60
2019-02-02T13:54:54.038Z,2.50
2019-02-02T13:57:24.198Z,2.50
2019-02-02T13:59:54.178Z,3.40
2019-02-02T14:02:24.182Z,2.60
2019-02-02T14:04:54.673Z,2.50
2019-02-02T14:07:24.725Z,2.50
2019-02-02T14:09:54.568Z,2.50
2019-02-02T14:12:24.457Z,2.40
2019-02-02T14:14:54.282Z,2.40
2019-02-02T14:17:24.417Z,2.40
2019-02-02T14:19:54.313Z,2.40
2019-02-02T14:22:27.044Z,2.40
2019-02-02T14:24:56.833Z,2.40
2019-02-02T14:27:29.952Z,2.30
2019-02-02T14:29:59.728Z,2.30
2019-02-02T14:32:29.666Z,2.30
2019-02-02T14:34:59.769Z,2.30
2019-02-02T14:37:29.624Z,2.30
2019-02-02T14:39:59.641Z,2.30
2019-02-02T14:42:29.577Z,2.30
2019-02-02T14:45:00.392Z,2.30
2019-02-02T14:47:30.180Z,2.30
2019-02-02T14:50:00.214Z,2.20
2019-02-02T14:52:30.024Z,2.30
2019-02-02T14:54:59.908Z,2.30
2019-02-02T14:57:29.718Z,2.20
2019-02-02T14:59:59.801Z,2.10
2019-02-02T15:02:29.600Z,2.00
2019-02-02T15:04:59.403Z,2.00
2019-02-02T15:07:29.366Z,2.00
2019-02-02T15:09:59.305Z,2.00
2019-02-02T15:12:29.270Z,2.10
2019-02-02T15:14:59.195Z,2.10
2019-02-02T15:17:29.049Z,2.10
2019-02-02T15:19:59.028Z,2.10
2019-02-02T15:22:28.774Z,2.00
2019-02-02T15:24:58.699Z,2.00
2019-02-02T15:27:28.678Z,2.00
2019-02-02T15:29:58.509Z,2.00
2019-02-02T15:32:28.559Z,2.10
2019-02-02T15:34:58.457Z,2.10
2019-02-02T15:37:28.520Z,2.10
2019-02-02T15:39:58.496Z,2.10
2019-02-02T15:42:28.649Z,2.10
2019-02-02T15:44:58.690Z,2.00
2019-02-02T15:47:28.713Z,1.90
2019-02-02T15:49:58.632Z,1.90
2019-02-02T15:52:29.068Z,1.90
2019-02-02T15:54:59.069Z,1.90
2019-02-02T15:57:29.052Z,1.90
2019-02-02T15:59:58.911Z,1.90
2019-02-02T16:02:28.840Z,1.90
2019-02-02T16:04:59.146Z,1.90
2019-02-02T16:07:29.399Z,1.90
2019-02-02T16:09:59.163Z,1.90
2019-02-02T16:12:29.032Z,1.90
2019-02-02T16:14:58.931Z,1.90
2019-02-02T16:17:28.888Z,1.90
2019-02-02T16:19:58.771Z,1.90
2019-02-02T16:22:28.528Z,1.90
2019-02-02T16:24:58.337Z,1.90
2019-02-02T16:27:28.137Z,1.90
2019-02-02T16:29:57.990Z,1.90
2019-02-02T16:32:28.083Z,1.90
2019-02-02T16:34:57.923Z,1.90
2019-02-02T16:37:27.861Z,1.90
2019-02-02T16:39:57.911Z,1.90
2019-02-02T16:42:27.959Z,1.90
2019-02-02T16:44:57.815Z,1.90
2019-02-02T16:47:27.812Z,1.90
2019-02-02T16:49:57.768Z,1.90
2019-02-02T16:52:27.640Z,1.90
2019-02-02T16:54:58.069Z,1.90
2019-02-02T16:57:27.947Z,1.90
2019-02-02T16:59:57.824Z,1.90
2019-02-02T17:02:27.640Z,1.90
2019-02-02T17:04:57.621Z,1.90
2019-02-02T17:07:28.658Z,1.90
2019-02-02T17:09:59.229Z,1.90
2019-02-02T17:12:31.561Z,1.90
2019-02-02T17:15:01.767Z,1.90
2019-02-02T17:17:34.590Z,1.80
2019-02-02T17:20:07.338Z,1.80
2019-02-02T17:22:37.180Z,1.80
2019-02-02T17:25:08.830Z,1.80
2019-02-02T17:27:38.820Z,1.80
2019-02-02T17:30:10.844Z,1.90
2019-02-02T17:32:40.788Z,1.90
2019-02-02T17:35:11.317Z,1.90
2019-02-02T17:37:41.144Z,2.00
2019-02-02T17:40:22.336Z,1.90
2019-02-02T17:42:52.269Z,1.90
2019-02-02T17:45:26.972Z,2.00
2019-02-02T17:47:57.273Z,1.90
2019-02-02T17:50:28.233Z,1.90
2019-02-02T17:52:58.393Z,1.90
2019-02-02T17:55:28.796Z,1.90
2019-02-02T17:57:59.509Z,1.90
2019-02-02T18:00:41.707Z,1.90
2019-02-02T18:03:12.058Z,1.80
2019-02-02T18:05:42.269Z,1.90
2019-02-02T18:08:12.507Z,1.80
2019-02-02T18:10:45.469Z,1.80
2019-02-02T18:13:18.407Z,1.80
2019-02-02T18:15:53.902Z,1.90
2019-02-02T18:18:31.352Z,1.90
2019-02-02T18:21:01.345Z,1.90
2019-02-02T18:23:32.257Z,1.90
2019-02-02T18:26:02.127Z,1.80
2019-02-02T18:28:32.150Z,1.80
2019-02-02T18:31:02.921Z,1.80
2019-02-02T18:33:33.060Z,1.80
2019-02-02T18:36:06.146Z,1.80
2019-02-02T18:38:42.825Z,1.80
2019-02-02T18:41:12.958Z,1.80
2019-02-02T18:43:45.494Z,1.90
2019-02-02T18:46:19.473Z,1.90
2019-02-02T18:48:53.921Z,2.00
2019-02-02T18:51:24.796Z,1.90
2019-02-02T18:53:54.628Z,1.90
2019-02-02T18:56:25.003Z,1.80
2019-02-02T18:58:54.884Z,1.90
2019-02-02T19:01:24.947Z,1.80
2019-02-02T19:03:54.883Z,1.80
2019-02-02T19:06:24.640Z,1.80
2019-02-02T19:08:54.524Z,1.80
2019-02-02T19:11:24.652Z,1.80
2019-02-02T19:13:54.684Z,1.90
2019-02-02T19:16:24.706Z,1.80
2019-02-02T19:18:54.741Z,1.80
2019-02-02T19:21:24.452Z,1.80
2019-02-02T19:23:54.569Z,1.90
2019-02-02T19:26:24.464Z,1.90
2019-02-02T19:28:54.677Z,1.90
2019-02-02T19:31:26.776Z,1.90
2019-02-02T19:33:56.618Z,1.90
2019-02-02T19:36:29.885Z,1.90
2019-02-02T19:39:00.244Z,1.90
2019-02-02T19:41:34.291Z,1.90
2019-02-02T19:44:09.800Z,1.90
2019-02-02T19:46:39.796Z,1.90
2019-02-02T19:49:09.857Z,1.90
2019-02-02T19:51:40.035Z,1.90
2019-02-02T19:54:09.989Z,2.00
2019-02-02T19:56:39.892Z,2.00
2019-02-02T19:59:09.609Z,2.00
2019-02-02T20:01:39.648Z,2.00
2019-02-02T20:04:09.598Z,1.90
2019-02-02T20:06:40.482Z,1.90
2019-02-02T20:09:10.354Z,1.90
2019-02-02T20:11:41.091Z,1.90
2019-02-02T20:14:11.046Z,1.90
2019-02-02T20:16:41.039Z,1.90
2019-02-02T20:19:11.140Z,2.00
2019-02-02T20:21:44.402Z,2.00
2019-02-02T20:24:12.988Z,1.90
2019-02-02T20:26:42.829Z,1.90
2019-02-02T20:29:12.937Z,1.90
2019-02-02T20:31:43.004Z,1.90
2019-02-02T20:34:13.009Z,1.90
2019-02-02T20:36:43.646Z,1.90
2019-02-02T20:39:13.568Z,1.90
2019-02-02T20:41:43.691Z,1.90
2019-02-02T20:44:15.574Z,1.00
2019-02-02T20:46:45.489Z,1.90
2019-02-02T20:49:15.967Z,1.90
2019-02-02T20:51:45.950Z,1.90
2019-02-02T20:54:18.822Z,1.90
2019-02-02T20:56:47.551Z,1.80
2019-02-02T20:59:17.524Z,1.80
2019-02-02T21:01:47.552Z,1.80
2019-02-02T21:04:17.484Z,1.80
2019-02-02T21:06:47.724Z,1.90
2019-02-02T21:09:17.785Z,1.90
2019-02-02T21:11:56.678Z,1.90
2019-02-02T21:14:19.689Z,1.90
2019-02-02T21:16:50.393Z,2.00
2019-02-02T21:19:21.514Z,1.90
2019-02-02T21:21:52.591Z,1.90
2019-02-02T21:24:22.669Z,2.00
2019-02-02T21:26:53.027Z,2.00
2019-02-02T21:29:22.887Z,2.00
2019-02-02T21:31:53.198Z,2.00
2019-02-02T21:34:25.071Z,1.90
2019-02-02T21:36:56.690Z,1.90
2019-02-02T21:39:26.659Z,1.90
2019-02-02T21:41:59.630Z,1.90
2019-02-02T21:44:30.302Z,1.90
2019-02-02T21:47:00.256Z,1.90
2019-02-02T21:49:30.142Z,1.90
2019-02-02T21:52:00.260Z,1.90
2019-02-02T21:54:30.049Z,2.00
2019-02-02T21:57:00.463Z,1.90
2019-02-02T21:59:31.832Z,1.90
2019-02-02T22:02:01.807Z,2.00
2019-02-02T22:04:31.875Z,2.00
2019-02-02T22:07:01.867Z,2.00
2019-02-02T22:09:33.029Z,1.90
2019-02-02T22:12:03.059Z,2.00
2019-02-02T22:14:33.016Z,1.90
2019-02-02T22:17:03.991Z,2.00
2019-02-02T22:19:34.400Z,2.00
2019-02-02T22:22:05.332Z,2.00
2019-02-02T22:24:35.777Z,2.00
2019-02-02T22:27:05.895Z,2.00
2019-02-02T22:29:35.764Z,2.00
2019-02-02T22:32:06.953Z,2.00
2019-02-02T22:34:37.323Z,2.10
2019-02-02T22:37:07.459Z,2.00
2019-02-02T22:39:37.524Z,2.10
2019-02-02T22:42:07.465Z,2.10
2019-02-02T22:44:37.528Z,2.00
2019-02-02T22:47:08.079Z,2.10
2019-02-02T22:49:39.613Z,2.10
2019-02-02T22:52:10.715Z,2.00
2019-02-02T22:54:40.921Z,2.00
2019-02-02T22:57:11.331Z,2.00
2019-02-02T22:59:43.293Z,2.00
2019-02-02T23:02:17.226Z,2.00
2019-02-02T23:05:23.348Z,2.60
2019-02-02T23:08:22.801Z,2.00
2019-02-02T23:11:33.669Z,2.10
2019-02-02T23:14:30.332Z,2.10
2019-02-02T23:17:00.393Z,2.10
2019-02-02T23:19:30.711Z,2.20
2019-02-02T23:22:01.401Z,2.10
2019-02-02T23:24:31.344Z,2.10
2019-02-02T23:27:02.368Z,2.10
2019-02-02T23:29:32.258Z,2.10
2019-02-02T23:32:02.279Z,2.10
2019-02-02T23:34:32.243Z,2.10
2019-02-02T23:37:02.305Z,2.10
2019-02-02T23:39:32.460Z,2.10
2019-02-02T23:42:02.586Z,2.10
2019-02-02T23:44:33.579Z,2.00
2019-02-02T23:47:03.438Z,2.10
2019-02-02T23:49:33.207Z,2.10
2019-02-02T23:52:04.358Z,2.10
2019-02-02T23:54:34.403Z,2.00
2019-02-02T23:57:04.533Z,2.00
2019-02-02T23:59:35.350Z,2.00
